Time;durP1;ratioP1;P1;durP2;ratioP2;P2;SDS_P1;SDS_P2;PMS_P1;PMS_P2;Temp;Humidity;BMP_temperature;BMP_pressure;BME280_temperature;BME280_humidity;BME280_pressure;Samples;Min_cycle;Max_cycle;Signal;HPM_P1;HPM_P2
2022/11/23 00:01:14;;;;;;;4.10;2.00;;;9.20;98.30;;;;;;934529;149;27365;-80
2022/11/23 00:03:40;;;;;;;2.83;1.60;;;9.20;98.50;;;;;;932185;149;27330;-80
2022/11/23 00:06:06;;;;;;;3.97;1.63;;;9.30;98.60;;;;;;933676;149;27315;-80
2022/11/23 00:08:33;;;;;;;5.17;1.70;;;9.30;98.60;;;;;;942168;147;27390;-80
2022/11/23 00:11:00;;;;;;;5.03;1.70;;;9.40;98.60;;;;;;916520;151;27469;-80
2022/11/23 00:13:26;;;;;;;4.03;1.90;;;9.40;98.60;;;;;;935613;149;28549;-80
2022/11/23 00:15:53;;;;;;;5.07;2.20;;;9.50;98.60;;;;;;936898;149;27410;-80
2022/11/23 00:18:19;;;;;;;3.93;1.77;;;9.60;98.50;;;;;;936542;149;27307;-80
2022/11/23 00:20:46;;;;;;;3.53;2.10;;;9.60;98.30;;;;;;938962;149;27315;-80
2022/11/23 00:23:13;;;;;;;3.17;1.80;;;9.70;98.30;;;;;;936908;149;27384;-80
2022/11/23 00:25:39;;;;;;;3.33;1.67;;;9.70;98.10;;;;;;937316;150;27459;-80
2022/11/23 00:28:06;;;;;;;4.63;2.00;;;9.80;98.00;;;;;;936329;149;27361;-80
2022/11/23 00:30:32;;;;;;;6.50;2.00;;;9.80;98.00;;;;;;939559;149;27295;-79
2022/11/23 00:32:59;;;;;;;3.03;1.57;;;9.90;97.80;;;;;;936799;149;27334;-80
2022/11/23 00:35:25;;;;;;;1.80;1.43;;;9.90;97.60;;;;;;936782;149;27397;-80
2022/11/23 00:37:52;;;;;;;5.00;1.83;;;10.00;97.50;;;;;;937336;149;27467;-80
2022/11/23 00:40:19;;;;;;;2.00;1.40;;;10.00;97.30;;;;;;936168;149;27856;-80
2022/11/23 00:42:45;;;;;;;4.57;1.57;;;10.00;97.20;;;;;;936190;149;27337;-80
2022/11/23 00:45:12;;;;;;;5.20;1.93;;;10.10;97.00;;;;;;935893;149;27364;-80
2022/11/23 00:47:38;;;;;;;5.17;1.73;;;10.10;96.70;;;;;;936216;149;27519;-80
2022/11/23 00:50:05;;;;;;;4.70;1.70;;;10.10;96.50;;;;;;936839;149;27451;-80
2022/11/23 00:52:32;;;;;;;5.10;1.93;;;10.10;96.40;;;;;;935233;149;27321;-80
2022/11/23 00:54:58;;;;;;;5.47;1.87;;;10.10;96.30;;;;;;935287;149;27312;-80
2022/11/23 00:57:25;;;;;;;4.67;1.83;;;10.10;96.30;;;;;;937184;149;27412;-80
2022/11/23 00:59:51;;;;;;;2.13;1.83;;;10.10;96.20;;;;;;936717;149;27321;-79
2022/11/23 01:02:18;;;;;;;2.83;1.83;;;10.10;96.10;;;;;;936863;149;27487;-80
2022/11/23 01:04:44;;;;;;;5.67;1.80;;;10.10;96.10;;;;;;935513;149;27388;-80
2022/11/23 01:07:11;;;;;;;3.23;1.40;;;10.10;96.10;;;;;;936537;149;27350;-80
2022/11/23 01:09:38;;;;;;;4.53;1.80;;;10.00;95.70;;;;;;936148;149;27366;-80
2022/11/23 01:12:04;;;;;;;6.30;1.90;;;10.00;96.00;;;;;;935857;149;27404;-80
2022/11/23 01:14:31;;;;;;;4.17;1.80;;;10.00;95.90;;;;;;937914;149;27381;-79
2022/11/23 01:16:57;;;;;;;3.17;1.63;;;10.00;95.70;;;;;;936571;149;27450;-80
2022/11/23 01:19:24;;;;;;;4.10;1.73;;;10.00;95.60;;;;;;937875;149;27301;-81
2022/11/23 01:21:51;;;;;;;3.40;2.00;;;9.90;95.50;;;;;;930193;149;27322;-80
2022/11/23 01:24:17;;;;;;;4.20;1.97;;;9.80;95.60;;;;;;941450;147;27834;-80
2022/11/23 01:26:44;;;;;;;4.43;2.00;;;9.80;95.90;;;;;;941638;146;27293;-80
2022/11/23 01:29:10;;;;;;;4.40;2.00;;;9.70;96.10;;;;;;942471;147;27433;-80
2022/11/23 01:31:37;;;;;;;2.90;1.70;;;9.70;96.40;;;;;;942766;147;27942;-80
2022/11/23 01:34:04;;;;;;;2.17;1.60;;;9.70;96.60;;;;;;919372;150;27300;-80
2022/11/23 01:36:30;;;;;;;3.40;2.07;;;9.70;96.70;;;;;;934241;149;27296;-80
2022/11/23 01:38:57;;;;;;;4.20;1.77;;;9.70;96.80;;;;;;931572;149;27370;-80
2022/11/23 01:41:26;;;;;;;3.13;1.77;;;9.70;96.80;;;;;;945330;147;27808;-80
2022/11/23 01:43:53;;;;;;;1.87;1.40;;;9.70;96.80;;;;;;925554;149;27354;-80
2022/11/23 01:46:19;;;;;;;4.80;1.63;;;9.70;96.70;;;;;;924895;150;27463;-80
2022/11/23 01:48:46;;;;;;;1.90;1.43;;;9.70;96.60;;;;;;940052;147;27305;-80
2022/11/23 01:51:12;;;;;;;4.50;1.80;;;9.70;96.60;;;;;;918684;150;27313;-80
2022/11/23 01:53:39;;;;;;;2.67;1.50;;;9.70;96.50;;;;;;941483;147;27352;-80
2022/11/23 01:56:06;;;;;;;3.00;1.70;;;9.60;96.50;;;;;;928938;149;27419;-80
2022/11/23 01:58:32;;;;;;;3.33;1.47;;;9.60;96.50;;;;;;945854;146;27367;-80
2022/11/23 02:00:59;;;;;;;2.17;1.30;;;9.60;96.60;;;;;;951765;145;27313;-80
2022/11/23 02:03:25;;;;;;;2.60;1.50;;;9.60;96.70;;;;;;934697;149;27430;-80
2022/11/23 02:05:53;;;;;;;3.20;1.40;;;9.50;96.70;;;;;;955134;145;27364;-80
2022/11/23 02:08:19;;;;;;;3.50;1.73;;;9.50;96.80;;;;;;932756;149;27405;-80
2022/11/23 02:10:45;;;;;;;2.57;1.60;;;9.50;96.90;;;;;;950911;148;27442;-80
2022/11/23 02:13:12;;;;;;;3.70;1.47;;;9.50;96.90;;;;;;953708;146;27309;-80
2022/11/23 02:15:38;;;;;;;4.40;1.57;;;9.50;97.10;;;;;;935095;149;27345;-79
2022/11/23 02:18:10;;;;;;;3.37;1.60;;;9.50;97.20;;;;;;956375;145;27482;-80
2022/11/23 02:20:37;;;;;;;3.00;1.57;;;9.50;97.40;;;;;;934071;149;27449;-79
2022/11/23 02:23:04;;;;;;;4.03;1.67;;;9.40;97.60;;;;;;940294;148;27353;-78
2022/11/23 02:25:39;;;;;;;1.60;1.20;;;9.50;97.80;;;;;;952189;146;27406;-78
2022/11/23 02:28:06;;;;;;;3.37;1.40;;;9.50;98.00;;;;;;952213;145;27340;-79
2022/11/23 02:30:32;;;;;;;6.37;2.03;;;9.50;98.00;;;;;;935378;149;27397;-78
2022/11/23 02:32:59;;;;;;;3.77;1.70;;;9.50;98.10;;;;;;943867;148;27297;-79
2022/11/23 02:35:25;;;;;;;1.80;1.40;;;9.60;98.20;;;;;;955043;146;27301;-79
2022/11/23 02:37:52;;;;;;;2.90;1.43;;;9.60;98.20;;;;;;954325;148;27730;-78
2022/11/23 02:40:19;;;;;;;3.57;1.60;;;9.60;98.30;;;;;;953697;146;27359;-78
2022/11/23 02:42:45;;;;;;;5.30;1.70;;;9.60;98.20;;;;;;950967;146;27347;-78
2022/11/23 02:45:24;;;;;;;2.57;1.40;;;9.70;98.30;;;;;;954479;145;27970;-78
2022/11/23 02:47:50;;;;;;;2.30;1.90;;;9.70;98.30;;;;;;955895;145;27418;-78
2022/11/23 02:50:17;;;;;;;3.53;1.30;;;9.80;98.30;;;;;;958062;146;27378;-78
2022/11/23 02:52:43;;;;;;;3.70;1.40;;;9.80;98.30;;;;;;940678;148;27769;-78
2022/11/23 02:55:10;;;;;;;3.17;1.47;;;9.80;98.30;;;;;;955777;146;27382;-77
2022/11/23 02:57:37;;;;;;;5.03;1.50;;;9.90;98.30;;;;;;956995;145;27330;-78
2022/11/23 03:00:03;;;;;;;5.53;1.93;;;9.90;98.30;;;;;;943014;147;27348;-78
2022/11/23 03:02:30;;;;;;;3.90;1.50;;;10.00;98.30;;;;;;920535;150;27626;-79
2022/11/23 03:04:56;;;;;;;2.37;1.50;;;10.00;98.20;;;;;;935964;149;27464;-78
2022/11/23 03:07:23;;;;;;;8.83;2.47;;;10.00;98.00;;;;;;939218;147;27430;-79
2022/11/23 03:09:50;;;;;;;6.13;1.53;;;10.00;97.90;;;;;;931621;149;27402;-79
2022/11/23 03:12:16;;;;;;;3.43;1.40;;;10.00;97.80;;;;;;934147;149;27342;-78
2022/11/23 03:14:43;;;;;;;3.50;1.53;;;10.00;97.70;;;;;;933219;149;27279;-79
2022/11/23 03:17:09;;;;;;;4.10;1.70;;;10.10;97.60;;;;;;930587;149;27390;-79
2022/11/23 03:19:36;;;;;;;4.47;2.03;;;10.00;97.10;;;;;;931524;149;27377;-79
2022/11/23 03:22:03;;;;;;;2.07;1.27;;;10.00;97.40;;;;;;932866;149;27459;-79
2022/11/23 03:24:29;;;;;;;4.63;1.93;;;10.00;97.30;;;;;;932291;149;27388;-79
2022/11/23 03:26:56;;;;;;;3.00;1.83;;;10.00;97.30;;;;;;931532;150;27411;-78
2022/11/23 03:29:25;;;;;;;1.87;1.33;;;10.00;97.20;;;;;;931983;149;27308;-79
2022/11/23 03:31:49;;;;;;;4.30;1.97;;;10.00;97.30;;;;;;935001;149;27450;-78
2022/11/23 03:34:15;;;;;;;4.60;1.80;;;10.00;97.30;;;;;;941875;146;27308;-78
2022/11/23 03:36:42;;;;;;;2.93;1.60;;;10.00;97.40;;;;;;943399;147;27389;-79
2022/11/23 03:39:09;;;;;;;4.10;1.67;;;10.00;97.50;;;;;;918093;150;27297;-79
2022/11/23 03:41:35;;;;;;;3.87;1.53;;;10.00;97.50;;;;;;933265;149;27412;-79
2022/11/23 03:44:02;;;;;;;4.53;1.90;;;10.00;97.60;;;;;;933690;149;27367;-78
2022/11/23 03:46:28;;;;;;;3.03;1.57;;;10.00;97.90;;;;;;934581;149;27326;-78
2022/11/23 03:48:55;;;;;;;5.50;2.07;;;10.00;97.60;;;;;;938943;147;27282;-78
2022/11/23 03:51:22;;;;;;;5.53;1.80;;;10.00;97.70;;;;;;940289;147;27720;-79
2022/11/23 03:53:48;;;;;;;3.47;1.50;;;10.00;97.70;;;;;;939851;147;27407;-78
2022/11/23 03:56:15;;;;;;;2.60;1.73;;;10.00;97.70;;;;;;939980;147;27351;-78
2022/11/23 03:58:41;;;;;;;4.00;1.67;;;10.00;97.80;;;;;;938553;147;27430;-78
2022/11/23 04:01:08;;;;;;;6.50;1.60;;;10.00;97.70;;;;;;934063;149;27305;-78
2022/11/23 04:03:34;;;;;;;4.03;2.37;;;10.00;97.70;;;;;;939844;146;27285;-78
2022/11/23 04:06:01;;;;;;;3.10;1.33;;;10.10;97.70;;;;;;916188;151;27380;-78
2022/11/23 04:08:28;;;;;;;8.10;2.20;;;10.10;97.70;;;;;;941075;147;27337;-79
2022/11/23 04:10:57;;;;;;;3.73;1.50;;;10.10;97.70;;;;;;940381;147;27420;-78
2022/11/23 04:13:24;;;;;;;5.57;2.23;;;10.10;97.70;;;;;;939807;147;27329;-78
2022/11/23 04:15:50;;;;;;;3.93;1.83;;;10.10;97.80;;;;;;918092;151;27825;-78
2022/11/23 04:18:17;;;;;;;4.00;1.67;;;10.10;97.80;;;;;;940978;147;27427;-78
2022/11/23 04:20:44;;;;;;;5.30;1.60;;;10.10;97.70;;;;;;915333;150;27879;-78
2022/11/23 04:23:10;;;;;;;3.97;1.50;;;10.10;97.70;;;;;;932792;149;27464;-78
2022/11/23 04:25:37;;;;;;;2.13;1.77;;;10.10;97.60;;;;;;942978;147;28178;-79
2022/11/23 04:28:03;;;;;;;4.93;1.83;;;10.10;97.50;;;;;;942198;147;27391;-78
2022/11/23 04:30:30;;;;;;;3.67;1.70;;;10.10;97.50;;;;;;942495;147;27272;-78
2022/11/23 04:32:56;;;;;;;4.50;1.80;;;10.10;97.40;;;;;;939815;147;27311;-78
2022/11/23 04:35:23;;;;;;;4.67;2.20;;;10.10;97.30;;;;;;941125;147;27358;-78
2022/11/23 04:37:50;;;;;;;3.60;1.70;;;10.10;97.20;;;;;;929364;150;27371;-78
2022/11/23 04:40:16;;;;;;;3.43;1.97;;;10.10;97.20;;;;;;940657;147;27293;-78
2022/11/23 04:42:43;;;;;;;4.73;2.10;;;10.10;97.20;;;;;;939129;147;27372;-78
2022/11/23 04:45:10;;;;;;;4.13;1.80;;;10.10;97.20;;;;;;932713;149;27451;-78
2022/11/23 04:47:36;;;;;;;3.93;1.70;;;10.10;97.20;;;;;;932958;150;27414;-79
2022/11/23 04:50:03;;;;;;;5.23;2.27;;;10.00;97.50;;;;;;931734;149;27521;-78
2022/11/23 04:52:29;;;;;;;2.43;1.70;;;10.10;97.30;;;;;;933194;149;27361;-78
2022/11/23 04:54:56;;;;;;;2.13;1.60;;;10.00;97.30;;;;;;939404;146;27344;-78
2022/11/23 04:57:22;;;;;;;3.67;1.70;;;10.00;97.30;;;;;;940246;147;27419;-78
2022/11/23 04:59:49;;;;;;;2.93;1.70;;;10.00;97.30;;;;;;941212;146;27483;-78
2022/11/23 05:02:16;;;;;;;3.37;1.70;;;10.00;97.40;;;;;;918227;150;27460;-78
2022/11/23 05:04:42;;;;;;;2.73;1.67;;;10.00;97.40;;;;;;939909;147;27462;-78
2022/11/23 05:07:09;;;;;;;4.03;1.90;;;10.00;97.40;;;;;;940566;147;27407;-79
2022/11/23 05:09:35;;;;;;;4.27;1.73;;;10.00;97.40;;;;;;924154;149;27376;-78
2022/11/23 05:12:02;;;;;;;2.83;1.83;;;10.00;97.40;;;;;;928219;150;27271;-78
2022/11/23 05:14:28;;;;;;;2.37;1.63;;;10.00;97.40;;;;;;940901;147;27430;-79
2022/11/23 05:16:55;;;;;;;3.33;1.93;;;10.00;97.50;;;;;;932170;149;27455;-78
2022/11/23 05:19:22;;;;;;;3.33;1.93;;;10.00;97.50;;;;;;941084;147;27275;-78
2022/11/23 05:21:48;;;;;;;2.83;1.70;;;10.00;97.40;;;;;;939839;147;27865;-78
2022/11/23 05:24:15;;;;;;;4.10;1.43;;;10.00;97.40;;;;;;941588;147;27388;-79
2022/11/23 05:26:41;;;;;;;3.57;1.90;;;10.00;97.50;;;;;;942280;147;27358;-79
2022/11/23 05:29:08;;;;;;;4.93;1.80;;;10.00;97.40;;;;;;923457;150;27479;-77
2022/11/23 05:31:35;;;;;;;3.23;1.90;;;9.90;97.40;;;;;;919682;151;27428;-77
2022/11/23 05:34:03;;;;;;;2.63;1.60;;;9.90;97.40;;;;;;939541;147;27315;-78
2022/11/23 05:36:28;;;;;;;3.67;1.87;;;10.00;97.40;;;;;;922457;150;27452;-79
2022/11/23 05:38:54;;;;;;;4.20;1.70;;;9.90;97.40;;;;;;928370;149;27363;-79
2022/11/23 05:41:21;;;;;;;3.40;1.70;;;9.90;97.50;;;;;;941772;147;27455;-79
2022/11/23 05:43:47;;;;;;;3.77;1.60;;;9.90;97.50;;;;;;939235;146;27465;-79
2022/11/23 05:46:15;;;;;;;4.03;1.90;;;9.80;97.50;;;;;;942043;146;27384;-79
2022/11/23 05:48:41;;;;;;;3.57;1.73;;;9.80;97.50;;;;;;916533;150;27920;-78
2022/11/23 05:51:07;;;;;;;5.07;1.83;;;9.80;97.50;;;;;;935416;149;27327;-79
2022/11/23 05:53:34;;;;;;;4.23;1.57;;;9.80;97.50;;;;;;937665;146;27661;-79
2022/11/23 05:56:00;;;;;;;3.03;1.50;;;9.80;97.50;;;;;;932979;149;27365;-78
2022/11/23 05:58:27;;;;;;;3.63;2.10;;;9.80;97.50;;;;;;932800;149;27323;-79
2022/11/23 06:00:57;;;;;;;2.93;1.70;;;9.80;97.60;;;;;;927819;149;27382;-78
2022/11/23 06:03:23;;;;;;;3.83;1.63;;;9.80;97.60;;;;;;931444;148;27401;-79
2022/11/23 06:05:50;;;;;;;5.93;2.03;;;9.80;97.70;;;;;;925563;151;27348;-79
2022/11/23 06:08:16;;;;;;;8.17;2.30;;;9.80;97.70;;;;;;926853;151;27443;-78
2022/11/23 06:10:43;;;;;;;3.00;1.90;;;9.70;97.70;;;;;;925239;151;27776;-78
2022/11/23 06:13:10;;;;;;;4.70;2.97;;;9.70;97.70;;;;;;926096;149;27439;-78
2022/11/23 06:15:36;;;;;;;4.43;2.80;;;9.70;97.80;;;;;;926115;151;27464;-79
2022/11/23 06:18:03;;;;;;;2.67;1.63;;;9.70;97.70;;;;;;910613;151;27808;-79
2022/11/23 06:20:29;;;;;;;5.67;2.07;;;9.70;97.60;;;;;;928280;149;27356;-78
2022/11/23 06:22:56;;;;;;;5.50;1.73;;;9.70;97.80;;;;;;909945;151;27420;-78
2022/11/23 06:25:22;;;;;;;5.37;2.20;;;9.70;98.00;;;;;;913580;151;27483;-79
2022/11/23 06:27:55;;;;;;;9.10;2.07;;;9.70;98.10;;;;;;926563;149;27427;-78
2022/11/23 06:30:22;;;;;;;1.77;1.27;;;9.70;98.20;;;;;;914661;151;27456;-78
2022/11/23 06:32:48;;;;;;;4.30;1.83;;;9.70;98.30;;;;;;925186;149;27533;-80
2022/11/23 06:35:15;;;;;;;3.40;1.90;;;9.70;98.30;;;;;;928913;149;27387;-79
2022/11/23 06:37:41;;;;;;;5.07;2.27;;;9.70;98.40;;;;;;927255;149;27332;-80
2022/11/23 06:40:08;;;;;;;3.37;1.90;;;9.70;98.50;;;;;;909631;152;27352;-78
2022/11/23 06:42:35;;;;;;;3.47;1.90;;;9.70;98.40;;;;;;927719;149;27349;-78
2022/11/23 06:45:01;;;;;;;3.63;2.17;;;9.70;98.40;;;;;;912075;151;27413;-78
2022/11/23 06:47:28;;;;;;;3.30;2.00;;;9.70;98.50;;;;;;924751;151;27406;-78
2022/11/23 06:49:55;;;;;;;6.33;2.67;;;9.70;98.40;;;;;;925411;151;27459;-77
2022/11/23 06:52:21;;;;;;;3.30;1.80;;;9.80;98.50;;;;;;927507;151;27343;-77
2022/11/23 06:54:48;;;;;;;4.87;2.03;;;9.80;98.40;;;;;;925380;151;27470;-77
2022/11/23 06:57:14;;;;;;;3.07;1.80;;;9.80;98.50;;;;;;930082;149;27291;-78
2022/11/23 06:59:41;;;;;;;5.37;2.23;;;9.80;98.80;;;;;;922919;151;27367;-78
2022/11/23 07:02:08;;;;;;;3.33;1.87;;;9.80;98.50;;;;;;930048;149;27487;-77
2022/11/23 07:04:34;;;;;;;2.83;1.80;;;9.80;98.50;;;;;;941979;147;27421;-77
2022/11/23 07:07:01;;;;;;;3.40;1.93;;;9.80;98.50;;;;;;942628;146;27411;-78
2022/11/23 07:09:27;;;;;;;5.67;3.13;;;9.80;98.40;;;;;;918779;150;27457;-77
2022/11/23 07:11:54;;;;;;;12.10;5.87;;;9.80;98.30;;;;;;932195;149;27339;-78
2022/11/23 07:14:20;;;;;;;17.87;8.30;;;9.80;98.30;;;;;;933317;149;27484;-77
2022/11/23 07:16:47;;;;;;;11.60;5.30;;;9.90;98.50;;;;;;933320;149;27366;-78
2022/11/23 07:19:14;;;;;;;8.77;4.90;;;9.90;98.40;;;;;;929733;149;27455;-77
2022/11/23 07:21:40;;;;;;;11.03;6.03;;;9.90;98.50;;;;;;917434;150;27300;-77
2022/11/23 07:24:07;;;;;;;10.50;6.23;;;9.90;98.50;;;;;;933841;149;27383;-78
2022/11/23 07:26:33;;;;;;;6.43;4.23;;;9.90;98.50;;;;;;934862;149;27365;-78
2022/11/23 07:29:00;;;;;;;5.97;3.03;;;9.90;98.50;;;;;;933411;149;27389;-78
2022/11/23 07:31:27;;;;;;;5.70;3.33;;;9.90;98.50;;;;;;933416;149;27441;-78
2022/11/23 07:33:53;;;;;;;4.60;2.43;;;9.90;98.50;;;;;;940727;147;27262;-79
2022/11/23 07:36:20;;;;;;;5.17;2.90;;;10.00;98.50;;;;;;933466;149;27343;-78
2022/11/23 07:38:46;;;;;;;8.60;3.50;;;10.00;98.50;;;;;;926854;149;27339;-80
2022/11/23 07:41:13;;;;;;;4.30;2.73;;;10.00;98.60;;;;;;939912;147;27332;-79
2022/11/23 07:43:40;;;;;;;5.37;2.10;;;10.00;98.60;;;;;;933855;149;28313;-79
2022/11/23 07:46:06;;;;;;;4.83;2.60;;;10.00;98.60;;;;;;938227;147;27313;-79
2022/11/23 07:48:33;;;;;;;4.43;2.63;;;10.00;98.60;;;;;;933524;149;27310;-80
2022/11/23 07:50:59;;;;;;;4.37;2.40;;;10.00;98.60;;;;;;931918;152;27330;-78
2022/11/23 07:53:26;;;;;;;8.33;2.30;;;10.10;98.60;;;;;;933807;149;27812;-78
2022/11/23 07:55:58;;;;;;;5.10;2.60;;;10.10;98.60;;;;;;924824;150;27333;-78
2022/11/23 07:58:25;;;;;;;3.20;2.10;;;10.10;98.60;;;;;;943051;147;27421;-77
2022/11/23 08:00:51;;;;;;;4.67;2.10;;;10.20;98.70;;;;;;942425;147;27281;-78
2022/11/23 08:03:18;;;;;;;4.43;2.53;;;10.20;98.70;;;;;;934325;148;27412;-79
2022/11/23 08:05:44;;;;;;;3.90;2.10;;;10.20;98.70;;;;;;958981;145;27452;-78
2022/11/23 08:08:11;;;;;;;5.20;2.10;;;10.30;98.70;;;;;;956569;145;27379;-78
2022/11/23 08:10:38;;;;;;;4.03;2.03;;;10.30;98.60;;;;;;958552;145;27251;-78
2022/11/23 08:13:04;;;;;;;7.30;2.57;;;10.40;98.60;;;;;;939365;148;27318;-78
2022/11/23 08:15:31;;;;;;;4.43;2.63;;;10.40;98.50;;;;;;950208;148;27501;-78
2022/11/23 08:17:57;;;;;;;3.03;2.20;;;10.50;98.60;;;;;;955311;148;27359;-78
2022/11/23 08:20:24;;;;;;;4.80;2.23;;;10.50;98.50;;;;;;956677;145;28726;-78
2022/11/23 08:22:51;;;;;;;5.27;2.30;;;10.50;98.40;;;;;;959351;145;27326;-78
2022/11/23 08:25:17;;;;;;;4.50;2.37;;;10.60;98.30;;;;;;957191;145;27308;-78
2022/11/23 08:27:44;;;;;;;3.27;1.83;;;10.70;98.30;;;;;;937698;148;27658;-78
2022/11/23 08:30:10;;;;;;;4.27;2.27;;;10.70;98.30;;;;;;957555;145;27356;-78
2022/11/23 08:32:37;;;;;;;5.80;4.43;;;10.80;98.40;;;;;;958209;145;27355;-78
2022/11/23 08:35:03;;;;;;;6.20;3.73;;;10.80;98.40;;;;;;945997;148;27435;-78
2022/11/23 08:37:30;;;;;;;5.70;3.03;;;10.90;98.40;;;;;;943438;148;27431;-78
2022/11/23 08:39:57;;;;;;;4.93;2.60;;;11.00;98.50;;;;;;951910;148;27423;-78
2022/11/23 08:42:23;;;;;;;4.20;2.50;;;11.10;98.50;;;;;;951632;148;27750;-78
2022/11/23 08:44:50;;;;;;;3.53;2.27;;;11.10;98.50;;;;;;958880;145;27363;-79
2022/11/23 08:47:18;;;;;;;6.33;2.33;;;11.20;98.50;;;;;;959187;145;27319;-78
2022/11/23 08:49:43;;;;;;;4.73;2.40;;;11.30;98.40;;;;;;956801;145;27358;-78
2022/11/23 08:52:10;;;;;;;5.23;1.97;;;11.40;98.30;;;;;;959345;145;27440;-78
2022/11/23 08:54:36;;;;;;;2.47;1.70;;;11.50;98.10;;;;;;938780;148;27441;-78
2022/11/23 08:57:03;;;;;;;3.47;1.80;;;11.60;97.90;;;;;;958927;145;27338;-78
2022/11/23 08:59:29;;;;;;;4.20;2.00;;;11.70;97.80;;;;;;937754;148;28276;-78
2022/11/23 09:01:56;;;;;;;3.60;1.70;;;11.80;97.70;;;;;;958299;145;27707;-78
2022/11/23 09:04:22;;;;;;;3.63;2.00;;;12.00;97.70;;;;;;954668;146;27377;-78
2022/11/23 09:06:49;;;;;;;2.23;1.70;;;12.10;97.80;;;;;;933092;149;27372;-77
2022/11/23 09:09:16;;;;;;;3.05;1.75;;;12.20;97.70;;;;;;956429;145;27505;-78
2022/11/23 09:11:42;;;;;;;3.53;2.23;;;12.40;97.60;;;;;;954396;145;27362;-78
2022/11/23 09:14:09;;;;;;;4.20;1.90;;;12.60;97.50;;;;;;936560;149;27515;-79
2022/11/23 09:16:35;;;;;;;1.87;1.47;;;12.70;97.00;;;;;;956004;145;27378;-78
2022/11/23 09:19:02;;;;;;;2.90;1.82;;;12.90;96.50;;;;;;934510;149;27488;-79
2022/11/23 09:21:32;;;;;;;4.73;2.00;;;13.00;95.50;;;;;;952930;146;27421;-79
2022/11/23 09:23:55;;;;;;;3.43;1.60;;;13.10;94.60;;;;;;952672;146;27423;-78
2022/11/23 09:26:22;;;;;;;4.70;1.73;;;13.20;93.70;;;;;;933436;149;27463;-78
2022/11/23 09:28:48;;;;;;;3.67;1.42;;;13.20;93.20;;;;;;954011;146;27347;-78
2022/11/23 09:31:15;;;;;;;2.27;1.50;;;13.20;92.60;;;;;;939728;148;27330;-78
2022/11/23 09:33:41;;;;;;;4.43;2.10;;;13.10;92.20;;;;;;952637;146;27622;-78
2022/11/23 09:36:08;;;;;;;3.47;1.80;;;13.10;91.90;;;;;;956742;145;27359;-77
2022/11/23 09:38:35;;;;;;;4.93;2.27;;;13.00;91.80;;;;;;935023;149;27361;-78
2022/11/23 09:41:01;;;;;;;2.10;1.50;;;13.00;91.80;;;;;;952441;146;27320;-77
2022/11/23 09:43:40;;;;;;;4.13;1.70;;;12.90;91.70;;;;;;945301;147;27336;-78
2022/11/23 09:46:09;;;;;;;3.50;1.70;;;12.90;91.80;;;;;;935244;149;27373;-78
2022/11/23 09:48:38;;;;;;;2.53;1.40;;;12.80;91.80;;;;;;936034;148;27485;-77
2022/11/23 09:51:17;;;;;;;4.17;1.73;;;12.70;91.90;;;;;;935546;148;27423;-78
2022/11/23 09:53:52;;;;;;;5.60;1.47;;;12.70;92.10;;;;;;950674;146;27331;-79
2022/11/23 09:56:21;;;;;;;2.67;1.60;;;12.70;92.20;;;;;;937099;148;27368;-79
2022/11/23 09:58:48;;;;;;;4.30;1.60;;;12.70;92.20;;;;;;951086;148;27351;-78
2022/11/23 10:01:14;;;;;;;5.83;1.70;;;12.70;92.10;;;;;;952540;146;27334;-77
2022/11/23 10:03:41;;;;;;;3.67;1.43;;;12.80;92.10;;;;;;934194;149;27459;-78
2022/11/23 10:06:20;;;;;;;4.63;1.50;;;12.80;91.90;;;;;;952789;145;27316;-78
2022/11/23 10:08:52;;;;;;;3.90;1.90;;;12.90;91.80;;;;;;933579;149;27434;-78
2022/11/23 10:11:56;;;;;;;4.93;1.60;;;13.00;91.60;;;;;;952671;145;28026;-78
2022/11/23 10:18:04;;;;;;;4.40;1.60;;;13.10;91.50;;;;;;975841;145;40591;-78
2022/11/23 10:20:33;;;;;;;4.53;1.80;;;13.20;89.10;;;;;;964933;146;27329;-78
2022/11/23 10:23:00;;;;;;;5.60;1.60;;;13.20;89.40;;;;;;964657;146;27366;-79
2022/11/23 10:25:38;;;;;;;3.30;1.57;;;13.30;89.30;;;;;;964667;146;27421;-79
2022/11/23 10:28:11;;;;;;;3.83;1.17;;;13.40;89.20;;;;;;967235;145;27437;-78
2022/11/23 10:30:38;;;;;;;4.00;1.80;;;13.50;88.80;;;;;;966068;146;28170;-78
2022/11/23 10:33:10;;;;;;;4.03;1.50;;;13.50;88.50;;;;;;965791;146;27294;-78
2022/11/23 10:35:37;;;;;;;3.62;1.70;;;13.50;87.10;;;;;;965726;146;27377;-78
2022/11/23 10:38:15;;;;;;;4.37;1.70;;;13.60;87.20;;;;;;963959;146;27366;-81
2022/11/23 10:41:06;;;;;;;5.40;1.60;;;13.60;87.20;;;;;;963224;146;27338;-78
2022/11/23 10:43:47;;;;;;;5.50;1.77;;;13.60;86.60;;;;;;962818;145;27410;-79
2022/11/23 10:46:36;;;;;;;6.57;1.67;;;13.70;86.40;;;;;;963719;145;27307;-80
2022/11/23 10:49:20;;;;;;;2.30;1.45;;;13.70;86.20;;;;;;963229;146;27782;-79
2022/11/23 10:52:05;;;;;;;4.33;3.00;;;13.70;86.40;;;;;;964449;146;27824;-80
2022/11/23 10:54:32;;;;;;;5.67;2.43;;;13.70;86.20;;;;;;961711;146;27270;-79
2022/11/23 10:56:58;;;;;;;5.00;2.22;;;13.80;86.00;;;;;;965693;146;27346;-79
2022/11/23 10:59:28;;;;;;;3.30;1.83;;;13.80;85.40;;;;;;963251;146;27422;-78
2022/11/23 11:02:00;;;;;;;3.73;2.10;;;13.80;85.10;;;;;;964130;146;27297;-79
2022/11/23 11:04:27;;;;;;;4.40;2.10;;;13.80;84.70;;;;;;963681;146;27392;-78
2022/11/23 11:06:53;;;;;;;4.20;1.67;;;13.80;84.40;;;;;;964091;145;27303;-78
2022/11/23 11:09:20;;;;;;;4.40;2.33;;;13.80;83.60;;;;;;949346;146;27399;-79
2022/11/23 11:11:47;;;;;;;5.10;1.82;;;13.80;83.50;;;;;;947773;149;27365;-79
2022/11/23 11:14:19;;;;;;;3.67;1.93;;;13.90;83.60;;;;;;947888;149;27305;-79
2022/11/23 11:16:48;;;;;;;2.27;1.30;;;13.90;83.50;;;;;;948080;149;27383;-79
2022/11/23 11:19:30;;;;;;;2.03;1.30;;;13.90;83.10;;;;;;947728;149;27423;-79
2022/11/23 11:21:57;;;;;;;4.35;2.12;;;13.90;82.90;;;;;;947543;149;27402;-79
2022/11/23 11:24:26;;;;;;;4.13;1.73;;;13.90;82.50;;;;;;947208;149;27328;-79
2022/11/23 11:26:52;;;;;;;5.37;1.97;;;13.90;82.50;;;;;;947601;149;27295;-79
2022/11/23 11:29:25;;;;;;;3.30;1.73;;;13.90;82.30;;;;;;944746;149;27349;-79
2022/11/23 11:31:52;;;;;;;4.30;2.00;;;14.00;82.10;;;;;;946077;149;27346;-79
2022/11/23 11:34:39;;;;;;;3.53;1.60;;;13.90;81.00;;;;;;946445;149;27418;-79
2022/11/23 11:37:21;;;;;;;2.53;1.30;;;14.00;80.50;;;;;;948089;149;27320;-79
2022/11/23 11:39:47;;;;;;;1.40;0.77;;;14.00;80.70;;;;;;947042;148;27301;-79
2022/11/23 11:42:20;;;;;;;1.80;1.20;;;14.00;80.70;;;;;;944873;149;27365;-79
2022/11/23 11:44:46;;;;;;;2.30;0.93;;;14.00;80.60;;;;;;942678;149;27427;-79
2022/11/23 11:47:13;;;;;;;3.42;1.30;;;14.00;80.50;;;;;;946958;149;27381;-78
2022/11/23 11:49:40;;;;;;;2.13;1.50;;;14.00;80.20;;;;;;944239;149;27312;-79
2022/11/23 11:52:20;;;;;;;5.03;2.07;;;14.00;80.10;;;;;;945279;149;27338;-79
2022/11/23 11:54:51;;;;;;;3.97;1.53;;;14.00;79.50;;;;;;945838;149;27329;-79
2022/11/23 11:57:20;;;;;;;5.57;1.30;;;14.00;79.40;;;;;;946932;148;27398;-79
2022/11/23 11:59:47;;;;;;;4.13;1.40;;;14.00;79.40;;;;;;947181;149;27418;-79
2022/11/23 12:02:19;;;;;;;2.43;1.23;;;14.00;79.00;;;;;;946208;149;27454;-78
2022/11/23 12:05:23;;;;;;;5.87;1.97;;;14.00;79.20;;;;;;946975;149;27314;-79
2022/11/23 12:08:26;;;;;;;2.10;1.37;;;14.00;79.10;;;;;;946883;149;27807;-78
2022/11/23 12:11:00;;;;;;;2.67;2.00;;;14.00;78.80;;;;;;945332;148;27777;-78
2022/11/23 12:13:25;;;;;;;2.30;1.30;;;14.00;78.90;;;;;;947045;149;27329;-79
2022/11/23 12:16:01;;;;;;;2.03;1.30;;;14.00;78.80;;;;;;946060;148;27443;-79
2022/11/23 12:18:30;;;;;;;2.98;1.65;;;14.00;78.50;;;;;;946346;148;27326;-78
2022/11/23 12:20:57;;;;;;;2.42;1.15;;;14.00;78.40;;;;;;946278;149;27343;-78
2022/11/23 12:23:42;;;;;;;3.90;1.67;;;14.00;78.10;;;;;;943463;149;27314;-78
2022/11/23 12:26:08;;;;;;;2.50;1.90;;;14.00;77.60;;;;;;947508;149;27305;-79
2022/11/23 12:28:53;;;;;;;2.13;1.07;;;14.00;77.50;;;;;;947456;149;27947;-79
2022/11/23 12:31:44;;;;;;;2.30;1.50;;;14.00;77.20;;;;;;945387;149;27318;-79
2022/11/23 12:34:14;;;;;;;3.20;1.57;;;14.00;77.70;;;;;;947123;149;27323;-79
2022/11/23 12:36:40;;;;;;;1.77;1.10;;;13.90;77.60;;;;;;947334;148;27377;-79
2022/11/23 12:39:16;;;;;;;1.95;1.30;;;13.90;77.50;;;;;;928663;149;27357;-79
2022/11/23 12:42:04;;;;;;;3.20;1.20;;;13.90;77.30;;;;;;945589;148;27324;-79
2022/11/23 12:45:01;;;;;;;1.87;1.23;;;13.90;77.30;;;;;;946338;149;27328;-79
2022/11/23 12:47:43;;;;;;;2.17;1.50;;;13.90;77.20;;;;;;946650;148;27296;-79
2022/11/23 12:50:30;;;;;;;4.47;1.87;;;13.80;77.20;;;;;;946787;149;27438;-79
2022/11/23 12:52:59;;;;;;;2.80;1.23;;;13.80;77.10;;;;;;944388;149;27452;-80
2022/11/23 12:55:47;;;;;;;1.98;1.05;;;13.80;76.90;;;;;;948070;149;27805;-79
2022/11/23 12:58:16;;;;;;;1.53;1.30;;;13.80;77.50;;;;;;945124;148;27414;-78
2022/11/23 13:00:52;;;;;;;3.95;1.30;;;13.70;76.70;;;;;;945216;149;27365;-78